Time,TemperatureF,DewpointF,PressureIn,WindDirection,WindDirectionDegrees,WindSpeedMPH,WindSpeedGustMPH,Humidity,HourlyPrecipIn,Conditions,Clouds,dailyrainin,SolarRadiationWatts/m^2,SoftwareType,DateUTC
2013-07-27 00:12:00,56.0,55.0,-100.00,NNE,13,0.0,0.0,98,0.00,,,0.48,0.000000,,2013-07-27 07:12:00,
2013-07-27 00:22:00,56.0,55.0,-100.00,NNE,13,0.0,0.0,98,0.00,,,0.48,0.000000,,2013-07-27 07:22:00,
2013-07-27 00:33:00,56.0,55.0,-100.00,NNE,13,0.0,0.0,98,0.00,,,0.48,0.000000,,2013-07-27 07:33:00,
2013-07-27 01:12:00,55.0,54.0,-100.00,NNE,19,0.0,0.0,97,0.00,,,0.48,0.000000,,2013-07-27 08:12:00,
2013-07-27 01:22:00,55.0,54.0,-100.00,NNE,19,0.0,0.0,97,0.00,,,0.48,0.000000,,2013-07-27 08:22:00,
2013-07-27 01:32:00,55.0,54.0,-100.00,NNE,19,0.0,0.0,97,0.00,,,0.48,0.000000,,2013-07-27 08:32:00,
2013-07-27 02:02:00,57.0,56.0,-100.00,North,4,0.0,0.0,95,0.00,,,0.48,0.000000,,2013-07-27 09:02:00,
2013-07-27 02:11:00,57.0,56.0,-100.00,North,4,0.0,0.0,95,0.00,,,0.48,0.000000,,2013-07-27 09:11:00,
2013-07-27 02:22:00,57.0,56.0,-100.00,North,4,0.0,0.0,95,0.00,,,0.48,0.000000,,2013-07-27 09:22:00,
2013-07-27 02:33:00,57.0,56.0,-100.00,North,4,0.0,0.0,95,0.00,,,0.48,0.000000,,2013-07-27 09:33:00,
2013-07-27 03:12:00,57.0,54.0,-100.00,North,4,0.0,0.0,91,0.00,,,0.48,0.000000,,2013-07-27 10:12:00,
2013-07-27 03:22:00,57.0,54.0,-100.00,North,4,0.0,0.0,91,0.00,,,0.48,0.000000,,2013-07-27 10:22:00,
2013-07-27 03:32:00,57.0,54.0,-100.00,North,4,0.0,0.0,91,0.00,,,0.48,0.000000,,2013-07-27 10:32:00,
2013-07-27 04:12:00,58.0,55.0,-100.00,NNE,21,0.0,0.0,91,0.00,,,0.48,0.000000,,2013-07-27 11:12:00,
2013-07-27 04:22:00,58.0,55.0,-100.00,NNE,21,0.0,0.0,91,0.00,,,0.48,0.000000,,2013-07-27 11:22:00,
2013-07-27 04:32:00,58.0,55.0,-100.00,NNE,21,0.0,0.0,91,0.00,,,0.48,0.000000,,2013-07-27 11:32:00,
2013-07-27 05:02:00,57.0,55.0,-100.00,North,5,0.0,0.0,93,0.00,,,0.48,0.000000,,2013-07-27 12:02:00,
2013-07-27 05:12:00,57.0,55.0,-100.00,North,5,0.0,0.0,93,0.00,,,0.48,0.000000,,2013-07-27 12:12:00,
2013-07-27 05:22:00,57.0,55.0,-100.00,North,5,0.0,0.0,93,0.00,,,0.48,0.000000,,2013-07-27 12:22:00,
2013-07-27 05:33:00,57.0,55.0,-100.00,North,5,0.0,0.0,93,0.00,,,0.48,0.000000,,2013-07-27 12:33:00,
2013-07-27 06:02:00,56.0,54.0,-100.00,North,4,0.0,0.0,93,0.00,,,0.48,0.000000,,2013-07-27 13:02:00,
2013-07-27 06:12:00,56.0,54.0,-100.00,North,4,0.0,0.0,93,0.00,,,0.48,0.000000,,2013-07-27 13:12:00,
2013-07-27 06:22:00,56.0,54.0,-100.00,North,4,0.0,0.0,93,0.00,,,0.48,0.000000,,2013-07-27 13:22:00,
2013-07-27 06:32:00,56.0,54.0,-100.00,North,4,0.0,0.0,93,0.00,,,0.48,0.000000,,2013-07-27 13:32:00,
2013-07-27 07:02:00,56.0,54.0,-100.00,NNE,13,0.0,0.0,94,0.00,,,0.48,11.000000,,2013-07-27 14:02:00,
2013-07-27 07:12:00,56.0,54.0,-100.00,NNE,13,0.0,0.0,94,0.00,,,0.48,11.000000,,2013-07-27 14:12:00,
2013-07-27 07:22:00,56.0,54.0,-100.00,NNE,13,0.0,0.0,94,0.00,,,0.48,11.000000,,2013-07-27 14:22:00,
2013-07-27 07:32:00,56.0,54.0,-100.00,NNE,13,0.0,0.0,94,0.00,,,0.48,11.000000,,2013-07-27 14:32:00,
2013-07-27 08:12:00,61.0,54.0,-100.00,NW,323,0.0,0.0,79,0.00,,,-99.99,86.000000,,2013-07-27 15:12:00,
2013-07-27 08:22:00,61.0,54.0,-100.00,NW,323,0.0,0.0,79,0.00,,,-99.99,86.000000,,2013-07-27 15:22:00,
2013-07-27 08:33:00,61.0,54.0,-100.00,NW,323,0.0,0.0,79,0.00,,,-99.99,86.000000,,2013-07-27 15:33:00,
2013-07-27 09:12:00,69.0,55.0,-100.00,East,79,0.0,0.0,61,0.00,,,0.48,194.000000,,2013-07-27 16:12:00,
2013-07-27 09:22:00,69.0,55.0,-100.00,East,79,0.0,0.0,61,0.00,,,0.48,194.000000,,2013-07-27 16:22:00,
2013-07-27 09:33:00,69.0,55.0,-100.00,East,79,0.0,0.0,61,0.00,,,0.48,194.000000,,2013-07-27 16:33:00,
2013-07-27 10:02:00,71.0,54.0,-100.00,West,264,1.0,4.0,55,0.00,,,0.48,399.000000,,2013-07-27 17:02:00,
2013-07-27 10:12:00,71.0,54.0,-100.00,West,264,1.0,4.0,55,0.00,,,0.48,399.000000,,2013-07-27 17:12:00,
2013-07-27 10:22:00,71.0,54.0,-100.00,West,264,1.0,4.0,55,0.00,,,0.48,399.000000,,2013-07-27 17:22:00,
2013-07-27 10:32:00,71.0,54.0,-100.00,West,264,1.0,4.0,55,0.00,,,0.48,399.000000,,2013-07-27 17:32:00,
2013-07-27 11:02:00,75.0,53.0,-100.00,West,271,0.0,6.0,47,0.00,,,0.48,668.000000,,2013-07-27 18:02:00,
2013-07-27 11:22:00,75.0,53.0,-100.00,West,271,0.0,6.0,47,0.00,,,0.48,668.000000,,2013-07-27 18:22:00,
2013-07-27 11:32:00,75.0,53.0,-100.00,West,271,0.0,6.0,47,0.00,,,0.48,668.000000,,2013-07-27 18:32:00,
2013-07-27 12:02:00,78.0,50.0,-100.00,West,266,2.0,8.0,37,0.00,,,0.48,1043.000000,,2013-07-27 19:02:00,
2013-07-27 12:12:00,78.0,50.0,-100.00,West,266,2.0,8.0,37,0.00,,,0.48,1043.000000,,2013-07-27 19:12:00,
2013-07-27 12:22:00,78.0,50.0,-100.00,West,266,2.0,8.0,37,0.00,,,0.48,1043.000000,,2013-07-27 19:22:00,
2013-07-27 12:32:00,78.0,50.0,-100.00,West,266,2.0,8.0,37,0.00,,,0.48,1043.000000,,2013-07-27 19:32:00,
2013-07-27 13:02:00,73.0,50.0,-100.00,WSW,243,0.0,7.0,45,0.00,,,0.48,427.000000,,2013-07-27 20:02:00,
2013-07-27 13:12:00,73.0,50.0,-100.00,WSW,243,0.0,7.0,45,0.00,,,0.48,427.000000,,2013-07-27 20:12:00,
2013-07-27 13:32:00,73.0,50.0,-100.00,WSW,243,0.0,7.0,45,0.00,,,0.48,427.000000,,2013-07-27 20:32:00,
2013-07-27 14:02:00,76.0,52.0,-100.00,WSW,255,1.0,9.0,43,0.00,,,0.48,353.000000,,2013-07-27 21:02:00,
2013-07-27 14:12:00,76.0,52.0,-100.00,WSW,255,1.0,9.0,43,0.00,,,0.48,353.000000,,2013-07-27 21:12:00,
2013-07-27 14:22:00,76.0,52.0,-100.00,WSW,255,1.0,9.0,43,0.00,,,0.48,353.000000,,2013-07-27 21:22:00,
2013-07-27 14:33:00,76.0,52.0,-100.00,WSW,255,1.0,9.0,43,0.00,,,0.48,353.000000,,2013-07-27 21:33:00,
2013-07-27 15:02:00,77.0,49.0,-100.00,West,270,1.0,9.0,37,0.00,,,0.48,714.000000,,2013-07-27 22:02:00,
2013-07-27 15:12:00,77.0,49.0,-100.00,West,270,1.0,9.0,37,0.00,,,0.48,714.000000,,2013-07-27 22:12:00,
2013-07-27 15:22:00,77.0,49.0,-100.00,West,270,1.0,9.0,37,0.00,,,0.48,714.000000,,2013-07-27 22:22:00,
2013-07-27 15:32:00,77.0,49.0,-100.00,West,270,1.0,9.0,37,0.00,,,0.48,714.000000,,2013-07-27 22:32:00,
2013-07-27 16:02:00,79.0,48.0,-100.00,SW,225,2.0,8.0,34,0.00,,,0.48,692.000000,,2013-07-27 23:02:00,
2013-07-27 16:12:00,79.0,48.0,-100.00,SW,225,2.0,8.0,34,0.00,,,0.48,692.000000,,2013-07-27 23:12:00,
2013-07-27 16:22:00,79.0,48.0,-100.00,SW,225,2.0,8.0,34,0.00,,,0.48,692.000000,,2013-07-27 23:22:00,
2013-07-27 16:32:00,79.0,48.0,-100.00,SW,225,2.0,8.0,34,0.00,,,0.48,692.000000,,2013-07-27 23:32:00,
2013-07-27 18:02:00,76.0,44.0,-100.00,SSW,195,3.0,10.0,32,0.00,,,0.01,652.000000,,2013-07-28 01:02:00,
2013-07-27 18:12:00,76.0,44.0,-100.00,SSW,195,3.0,10.0,32,0.00,,,0.01,652.000000,,2013-07-28 01:12:00,
2013-07-27 18:22:00,76.0,44.0,-100.00,SSW,195,3.0,10.0,32,0.00,,,0.01,652.000000,,2013-07-28 01:22:00,
2013-07-27 18:32:00,76.0,44.0,-100.00,SSW,195,3.0,10.0,32,0.00,,,0.01,652.000000,,2013-07-28 01:32:00,
2013-07-27 19:02:00,70.0,45.0,-100.00,SSW,201,1.0,9.0,40,0.00,,,0.00,101.000000,,2013-07-28 02:02:00,
2013-07-27 19:12:00,70.0,45.0,-100.00,SSW,201,1.0,9.0,40,0.00,,,0.00,101.000000,,2013-07-28 02:12:00,
2013-07-27 19:22:00,70.0,45.0,-100.00,SSW,201,1.0,9.0,40,0.00,,,0.00,101.000000,,2013-07-28 02:22:00,
2013-07-27 19:32:00,70.0,45.0,-100.00,SSW,201,1.0,9.0,40,0.00,,,0.00,101.000000,,2013-07-28 02:32:00,
2013-07-27 20:02:00,66.0,45.0,-100.00,SW,214,0.0,6.0,47,0.00,,,0.00,36.000000,,2013-07-28 03:02:00,
2013-07-27 20:12:00,66.0,45.0,-100.00,SW,214,0.0,6.0,47,0.00,,,0.00,36.000000,,2013-07-28 03:12:00,
2013-07-27 20:22:00,66.0,45.0,-100.00,SW,214,0.0,6.0,47,0.00,,,0.00,36.000000,,2013-07-28 03:22:00,
2013-07-27 20:32:00,66.0,45.0,-100.00,SW,214,0.0,6.0,47,0.00,,,0.00,36.000000,,2013-07-28 03:32:00,
2013-07-27 21:12:00,62.0,47.0,-100.00,NNW,340,0.0,4.0,59,0.00,,,0.00,3.000000,,2013-07-28 04:12:00,
2013-07-27 21:22:00,62.0,47.0,-100.00,NNW,340,0.0,4.0,59,0.00,,,0.00,3.000000,,2013-07-28 04:22:00,
2013-07-27 21:32:00,62.0,47.0,-100.00,NNW,340,0.0,4.0,59,0.00,,,0.00,3.000000,,2013-07-28 04:32:00,
2013-07-27 22:02:00,58.0,49.0,-100.00,NNW,346,0.0,0.0,71,0.00,,,0.00,0.000000,,2013-07-28 05:02:00,
2013-07-27 22:12:00,58.0,49.0,-100.00,NNW,346,0.0,0.0,71,0.00,,,0.00,0.000000,,2013-07-28 05:12:00,
2013-07-27 22:22:00,58.0,49.0,-100.00,NNW,346,0.0,0.0,71,0.00,,,0.00,0.000000,,2013-07-28 05:22:00,
2013-07-27 22:32:00,58.0,49.0,-100.00,NNW,346,0.0,0.0,71,0.00,,,0.00,0.000000,,2013-07-28 05:32:00,
2013-07-27 23:02:00,56.0,45.0,-100.00,NNW,345,0.0,0.0,66,0.00,,,0.00,0.000000,,2013-07-28 06:02:00,
2013-07-27 23:12:00,56.0,45.0,-100.00,NNW,345,0.0,0.0,66,0.00,,,0.00,0.000000,,2013-07-28 06:12:00,
2013-07-27 23:22:00,56.0,45.0,-100.00,NNW,345,0.0,0.0,66,0.00,,,0.00,0.000000,,2013-07-28 06:22:00,
2013-07-27 23:32:00,56.0,45.0,-100.00,NNW,345,0.0,0.0,66,0.00,,,0.00,0.000000,,2013-07-28 06:32:00,